createdAt,value
2018-10-11T00:00:04.418Z,17.63
2018-10-11T00:02:33.167Z,22.47
2018-10-11T00:05:01.618Z,18.90
2018-10-11T00:07:30.117Z,25.83
2018-10-11T00:09:58.609Z,22.13
2018-10-11T00:12:27.089Z,20.40
2018-10-11T00:14:55.586Z,22.87
2018-10-11T00:17:24.095Z,27.63
2018-10-11T00:19:52.602Z,20.60
2018-10-11T00:22:21.037Z,18.90
2018-10-11T00:24:49.520Z,21.10
2018-10-11T00:27:17.994Z,22.37
2018-10-11T00:29:46.478Z,21.07
2018-10-11T00:32:15.197Z,20.90
2018-10-11T00:34:43.654Z,19.43
2018-10-11T00:37:12.466Z,21.30
2018-10-11T00:39:40.951Z,24.90
2018-10-11T00:42:09.425Z,16.60
2018-10-11T00:44:38.214Z,20.47
2018-10-11T00:47:07.028Z,20.50
2018-10-11T00:49:36.051Z,20.90
2018-10-11T00:52:04.418Z,20.20
2018-10-11T00:54:33.392Z,18.17
2018-10-11T00:57:01.829Z,20.80
2018-10-11T00:59:30.239Z,21.20
2018-10-11T01:01:58.645Z,18.27
2018-10-11T01:04:27.397Z,23.73
2018-10-11T01:06:55.793Z,18.70
2018-10-11T01:09:24.631Z,19.87
2018-10-11T01:11:53.070Z,18.53
2018-10-11T01:14:21.602Z,22.63
2018-10-11T01:16:50.614Z,23.00
2018-10-11T01:19:19.130Z,21.37
2018-10-11T01:21:47.635Z,21.50
2018-10-11T01:24:16.136Z,19.60
2018-10-11T01:26:44.607Z,18.60
2018-10-11T01:29:13.099Z,21.70
2018-10-11T01:31:41.599Z,23.03
2018-10-11T01:34:10.083Z,22.30
2018-10-11T01:36:38.866Z,23.47
2018-10-11T01:39:07.630Z,20.50
2018-10-11T01:41:36.195Z,23.27
2018-10-11T01:44:11.294Z,21.50
2018-10-11T01:46:40.075Z,24.30
2018-10-11T01:49:08.591Z,20.70
2018-10-11T01:51:37.419Z,22.70
2018-10-11T01:54:06.038Z,19.47
2018-10-11T01:56:34.543Z,26.00
2018-10-11T01:59:03.083Z,21.67
2018-10-11T02:01:31.562Z,22.03
2018-10-11T02:04:00.031Z,23.30
2018-10-11T02:06:29.245Z,20.73
2018-10-11T02:08:57.710Z,23.60
2018-10-11T02:11:26.226Z,21.80
2018-10-11T02:13:54.685Z,24.80
2018-10-11T02:16:23.302Z,24.70
2018-10-11T02:18:51.775Z,22.90
2018-10-11T02:21:20.785Z,25.37
2018-10-11T02:23:49.267Z,23.80
2018-10-11T02:26:19.687Z,20.87
2018-10-11T02:28:48.169Z,24.13
2018-10-11T02:31:16.749Z,20.70
2018-10-11T02:33:45.227Z,23.50
2018-10-11T02:36:14.088Z,21.90
2018-10-11T02:38:42.554Z,22.40
2018-10-11T02:41:11.254Z,21.30
2018-10-11T02:43:39.994Z,22.57
2018-10-11T02:46:08.739Z,22.20
2018-10-11T02:48:37.190Z,20.83
2018-10-11T02:51:06.054Z,21.40
2018-10-11T02:53:34.872Z,20.90
2018-10-11T02:56:03.989Z,23.37
2018-10-11T02:58:44.075Z,21.73
2018-10-11T03:01:12.599Z,24.13
2018-10-11T03:03:41.131Z,24.23
2018-10-11T03:06:09.719Z,21.03
2018-10-11T03:08:38.231Z,24.33
2018-10-11T03:11:06.731Z,24.80
2018-10-11T03:13:35.234Z,20.90
2018-10-11T03:16:03.979Z,24.67
2018-10-11T03:18:32.671Z,24.13
2018-10-11T03:21:01.147Z,22.67
2018-10-11T03:23:29.577Z,24.17
2018-10-11T03:25:58.045Z,22.33
2018-10-11T03:28:26.543Z,23.97
2018-10-11T03:30:54.970Z,23.60
2018-10-11T03:33:24.085Z,22.77
2018-10-11T03:35:52.536Z,23.37
2018-10-11T03:38:20.991Z,23.57
2018-10-11T03:40:49.502Z,23.33
2018-10-11T03:43:18.068Z,19.53
2018-10-11T03:45:46.573Z,24.30
2018-10-11T03:48:15.097Z,21.60
2018-10-11T03:50:43.567Z,22.17
2018-10-11T03:53:12.043Z,25.43
2018-10-11T03:55:40.519Z,24.27
2018-10-11T03:58:09.022Z,25.50
2018-10-11T04:00:37.586Z,24.90
2018-10-11T04:03:06.183Z,22.30
2018-10-11T04:05:34.685Z,27.93
2018-10-11T04:08:03.183Z,23.67
2018-10-11T04:10:31.642Z,24.70
2018-10-11T04:13:00.134Z,23.83
2018-10-11T04:15:28.664Z,23.60
2018-10-11T04:17:57.491Z,21.43
2018-10-11T04:20:26.000Z,27.03
2018-10-11T04:22:54.511Z,24.53
2018-10-11T04:25:22.963Z,25.80
2018-10-11T04:27:51.521Z,23.73
2018-10-11T04:30:20.335Z,26.40
2018-10-11T04:32:48.770Z,23.80
2018-10-11T04:35:17.222Z,23.93
2018-10-11T04:37:45.733Z,23.40
2018-10-11T04:40:14.138Z,27.43
2018-10-11T04:42:42.720Z,28.20
2018-10-11T04:45:11.116Z,24.80
2018-10-11T04:47:39.938Z,25.03
2018-10-11T04:50:08.414Z,26.43
2018-10-11T04:52:36.843Z,23.60
2018-10-11T04:55:05.690Z,23.97
2018-10-11T04:57:34.187Z,22.43
2018-10-11T05:00:02.648Z,28.10
2018-10-11T05:02:31.088Z,25.97
2018-10-11T05:04:59.847Z,25.80
2018-10-11T05:07:28.258Z,25.53
2018-10-11T05:09:56.967Z,22.17
2018-10-11T05:12:25.755Z,25.87
2018-10-11T05:14:54.299Z,27.77
2018-10-11T05:17:22.813Z,24.33
2018-10-11T05:19:51.312Z,21.50
2018-10-11T05:22:19.847Z,24.60
2018-10-11T05:24:48.367Z,22.13
2018-10-11T05:27:16.810Z,21.40
2018-10-11T05:29:45.515Z,23.77
2018-10-11T05:32:14.533Z,23.17
2018-10-11T05:34:42.950Z,23.70
2018-10-11T05:37:11.732Z,27.20
2018-10-11T05:39:40.217Z,25.70
2018-10-11T05:42:08.847Z,23.97
2018-10-11T05:44:37.348Z,24.97
2018-10-11T05:47:05.922Z,25.80
2018-10-11T05:49:34.435Z,22.73
2018-10-11T05:52:03.788Z,21.13
2018-10-11T05:54:32.959Z,21.97
2018-10-11T05:57:01.438Z,24.87
2018-10-11T05:59:29.985Z,24.00
2018-10-11T06:01:58.434Z,25.73
2018-10-11T06:04:27.274Z,24.93
2018-10-11T06:06:55.744Z,23.27
2018-10-11T06:09:24.529Z,27.30
2018-10-11T06:11:53.103Z,25.07
2018-10-11T06:14:21.630Z,22.73
2018-10-11T06:16:50.395Z,27.60
2018-10-11T06:19:18.867Z,24.67
2018-10-11T06:21:47.403Z,25.50
2018-10-11T06:24:15.862Z,23.73
2018-10-11T06:26:44.685Z,23.83
2018-10-11T06:29:13.164Z,24.57
2018-10-11T06:31:41.653Z,26.63
2018-10-11T06:34:10.181Z,23.87
2018-10-11T06:36:39.661Z,26.07
2018-10-11T06:39:09.282Z,24.70
2018-10-11T06:41:37.903Z,26.37
2018-10-11T06:44:06.814Z,25.17
2018-10-11T06:46:35.462Z,20.40
2018-10-11T06:49:04.343Z,23.93
2018-10-11T06:51:32.917Z,28.00
2018-10-11T06:54:01.456Z,24.03
2018-10-11T06:56:29.982Z,23.30
2018-10-11T06:58:58.483Z,21.27
2018-10-11T07:01:26.988Z,23.80
2018-10-11T07:03:55.464Z,25.20
2018-10-11T07:06:24.012Z,22.50
2018-10-11T07:08:52.550Z,26.37
2018-10-11T07:11:21.112Z,21.30
2018-10-11T07:13:49.649Z,23.43
2018-10-11T07:16:18.134Z,25.70
2018-10-11T07:18:46.594Z,21.53
2018-10-11T07:21:15.114Z,21.47
2018-10-11T07:23:43.630Z,21.70
2018-10-11T07:26:12.159Z,21.60
2018-10-11T07:28:40.663Z,20.93
2018-10-11T07:31:09.148Z,22.43
2018-10-11T07:33:37.627Z,22.30
2018-10-11T07:36:06.123Z,25.20
2018-10-11T07:38:34.625Z,22.03
2018-10-11T07:41:03.473Z,24.03
2018-10-11T07:43:32.144Z,26.37
2018-10-11T07:46:00.839Z,20.30
2018-10-11T07:48:29.335Z,22.07
2018-10-11T07:50:57.777Z,22.73
2018-10-11T07:53:26.291Z,21.40
2018-10-11T07:55:54.726Z,20.77
2018-10-11T07:58:23.221Z,23.40
2018-10-11T08:00:51.651Z,21.77
2018-10-11T08:03:20.139Z,22.20
2018-10-11T08:05:48.636Z,21.03
2018-10-11T08:08:17.116Z,23.90
2018-10-11T08:10:45.581Z,23.83
2018-10-11T08:13:14.064Z,21.37
2018-10-11T08:15:42.536Z,25.77
2018-10-11T08:18:10.987Z,19.37
2018-10-11T08:20:39.458Z,19.90
2018-10-11T08:23:07.881Z,19.30
2018-10-11T08:25:36.709Z,20.00
2018-10-11T08:28:05.084Z,20.33
2018-10-11T08:30:33.539Z,18.40
2018-10-11T08:33:02.050Z,22.60
2018-10-11T08:35:30.445Z,19.90
2018-10-11T08:37:59.097Z,20.73
2018-10-11T08:40:27.412Z,18.03
2018-10-11T08:42:55.887Z,22.17
2018-10-11T08:45:24.333Z,24.83
2018-10-11T08:47:52.991Z,18.27
2018-10-11T08:50:21.932Z,17.50
2018-10-11T08:52:50.247Z,17.93
2018-10-11T08:55:18.876Z,18.07
2018-10-11T08:57:47.303Z,15.50
2018-10-11T09:00:15.772Z,17.37
2018-10-11T09:02:44.226Z,23.23
2018-10-11T09:05:12.775Z,18.20
2018-10-11T09:07:41.167Z,16.53
2018-10-11T09:10:09.619Z,16.63
2018-10-11T09:12:38.027Z,18.47
2018-10-11T09:15:07.440Z,16.43
2018-10-11T09:17:36.164Z,17.53
2018-10-11T09:20:04.808Z,15.83
2018-10-11T09:22:33.542Z,14.20
2018-10-11T09:25:02.327Z,18.03
2018-10-11T09:27:30.794Z,14.93
2018-10-11T09:29:59.597Z,13.67
2018-10-11T09:32:28.035Z,13.10
2018-10-11T09:34:56.495Z,13.97
2018-10-11T09:37:24.940Z,13.67
2018-10-11T09:39:53.374Z,14.90
2018-10-11T09:42:21.922Z,14.77
2018-10-11T09:44:50.395Z,15.03
2018-10-11T09:47:18.922Z,13.97
2018-10-11T09:49:47.732Z,13.33
2018-10-11T09:52:16.223Z,16.90
2018-10-11T09:54:44.748Z,14.07
2018-10-11T09:57:20.516Z,14.93
2018-10-11T09:59:49.004Z,14.20
2018-10-11T10:02:17.559Z,12.90
2018-10-11T10:04:47.325Z,12.60
2018-10-11T10:07:15.858Z,14.63
2018-10-11T10:09:45.052Z,15.30
2018-10-11T10:12:14.098Z,14.30
2018-10-11T10:14:43.338Z,15.17
2018-10-11T10:17:12.012Z,15.83
2018-10-11T10:19:41.001Z,14.47
2018-10-11T10:22:09.827Z,13.83
2018-10-11T10:24:38.305Z,14.83
2018-10-11T10:27:06.898Z,14.33
2018-10-11T10:29:35.830Z,17.53
2018-10-11T10:32:04.646Z,14.87
2018-10-11T10:34:33.179Z,15.07
2018-10-11T10:37:02.007Z,15.00
2018-10-11T10:39:30.539Z,15.33
2018-10-11T10:41:59.391Z,13.63
2018-10-11T10:44:27.987Z,15.10
2018-10-11T10:46:56.487Z,13.63
2018-10-11T10:49:24.958Z,13.03
2018-10-11T10:51:53.458Z,13.33
2018-10-11T10:54:27.243Z,15.03
2018-10-11T10:56:56.187Z,20.10
2018-10-11T10:59:25.103Z,13.63
2018-10-11T11:01:53.856Z,17.83
2018-10-11T11:04:22.766Z,13.20
2018-10-11T11:06:51.309Z,13.67
2018-10-11T11:09:19.767Z,14.67
2018-10-11T11:11:48.350Z,14.70
2018-10-11T11:14:17.347Z,13.13
2018-10-11T11:16:46.161Z,13.77
2018-10-11T11:19:15.124Z,14.87
2018-10-11T11:21:43.712Z,12.63
2018-10-11T11:24:12.544Z,14.53
2018-10-11T11:26:41.270Z,14.27
2018-10-11T11:29:09.785Z,14.63
2018-10-11T11:31:38.271Z,12.70
2018-10-11T11:34:06.834Z,13.37
2018-10-11T11:36:35.307Z,14.27
2018-10-11T11:39:05.475Z,13.30
2018-10-11T11:41:34.000Z,12.90
2018-10-11T11:44:02.499Z,16.33
2018-10-11T11:46:31.015Z,15.00
2018-10-11T11:48:59.523Z,12.27
2018-10-11T11:51:28.057Z,13.10
2018-10-11T11:53:56.626Z,12.73
2018-10-11T11:56:25.115Z,14.27
2018-10-11T11:58:53.622Z,13.23
2018-10-11T12:01:22.123Z,12.67
2018-10-11T12:03:50.666Z,16.37
2018-10-11T12:06:19.153Z,12.43
2018-10-11T12:08:47.637Z,13.60
2018-10-11T12:11:16.239Z,13.03
2018-10-11T12:13:44.731Z,11.87
2018-10-11T12:16:13.491Z,11.07
2018-10-11T12:18:42.248Z,12.30
2018-10-11T12:21:10.749Z,11.63
2018-10-11T12:23:39.599Z,12.63
2018-10-11T12:26:08.158Z,12.80
2018-10-11T12:28:36.758Z,11.37
2018-10-11T12:31:05.139Z,11.30
2018-10-11T12:33:33.642Z,9.80
2018-10-11T12:36:02.100Z,14.63
2018-10-11T12:38:30.734Z,12.47
2018-10-11T12:40:59.312Z,14.33
2018-10-11T12:43:27.647Z,10.40
2018-10-11T12:45:56.391Z,10.30
2018-10-11T12:48:25.225Z,11.23
2018-10-11T12:50:53.987Z,12.27
2018-10-11T12:53:22.606Z,11.73
2018-10-11T12:55:51.024Z,11.27
2018-10-11T12:58:19.527Z,16.10
2018-10-11T13:00:48.263Z,10.40
2018-10-11T13:03:16.777Z,10.00
2018-10-11T13:05:45.274Z,13.70
2018-10-11T13:08:13.781Z,9.57
2018-10-11T13:10:42.247Z,10.00
2018-10-11T13:13:10.749Z,10.07
2018-10-11T13:15:39.211Z,9.60
2018-10-11T13:18:07.712Z,11.43
2018-10-11T13:20:36.205Z,9.63
2018-10-11T13:23:06.439Z,9.93
2018-10-11T13:25:33.814Z,10.97
2018-10-11T13:28:02.595Z,9.60
2018-10-11T13:30:31.048Z,9.53
2018-10-11T13:32:59.522Z,10.47
2018-10-11T13:35:28.007Z,14.03
2018-10-11T13:37:56.749Z,10.70
2018-10-11T13:40:25.541Z,10.37
2018-10-11T13:42:54.104Z,13.17
2018-10-11T13:45:23.002Z,11.50
2018-10-11T13:47:51.463Z,12.17
2018-10-11T13:50:19.974Z,9.67
2018-10-11T13:52:48.914Z,14.20
2018-10-11T13:55:17.702Z,10.20
2018-10-11T13:57:46.227Z,11.00
2018-10-11T14:00:15.040Z,10.83
2018-10-11T14:02:43.508Z,12.07
2018-10-11T14:05:12.334Z,10.13
2018-10-11T14:07:40.797Z,10.97
2018-10-11T14:10:09.004Z,12.00
2018-10-11T14:12:37.554Z,13.33
2018-10-11T14:15:07.029Z,12.23
2018-10-11T14:17:35.691Z,10.80
2018-10-11T14:20:04.194Z,11.53
2018-10-11T14:22:32.707Z,10.13
2018-10-11T14:25:01.164Z,9.53
2018-10-11T14:27:29.654Z,9.50
2018-10-11T14:29:58.134Z,10.00
2018-10-11T14:32:26.636Z,9.43
2018-10-11T14:34:55.122Z,11.33
2018-10-11T14:37:23.890Z,11.20
2018-10-11T14:39:52.389Z,11.60
2018-10-11T14:42:21.256Z,9.87
2018-10-11T14:44:49.704Z,9.30
2018-10-11T14:47:18.193Z,9.80
2018-10-11T14:49:46.623Z,12.67
2018-10-11T14:52:15.879Z,11.03
2018-10-11T14:54:44.642Z,12.10
2018-10-11T14:57:13.383Z,11.40
2018-10-11T14:59:41.931Z,12.10
2018-10-11T15:02:10.566Z,14.80
2018-10-11T15:04:39.030Z,11.03
2018-10-11T15:07:07.927Z,11.30
2018-10-11T15:09:36.437Z,15.17
2018-10-11T15:12:04.962Z,11.13
2018-10-11T15:14:33.450Z,11.00
2018-10-11T15:17:01.952Z,15.23
2018-10-11T15:19:30.423Z,10.63
2018-10-11T15:21:58.932Z,11.03
2018-10-11T15:24:27.398Z,10.57
2018-10-11T15:26:55.898Z,10.27
2018-10-11T15:29:24.713Z,13.13
2018-10-11T15:31:53.155Z,10.20
2018-10-11T15:34:21.650Z,10.93
2018-10-11T15:36:50.118Z,11.63
2018-10-11T15:39:18.916Z,11.00
2018-10-11T15:41:47.453Z,12.13
2018-10-11T15:44:16.279Z,11.27
2018-10-11T15:46:44.767Z,11.50
2018-10-11T15:49:13.231Z,11.67
2018-10-11T15:51:41.714Z,13.00
2018-10-11T15:54:10.236Z,36.50
2018-10-11T15:56:38.734Z,22.10
2018-10-11T15:59:07.247Z,17.67
2018-10-11T16:01:35.719Z,18.17
2018-10-11T16:04:04.279Z,16.47
2018-10-11T16:06:32.749Z,11.80
2018-10-11T16:09:01.335Z,12.70
2018-10-11T16:11:29.776Z,21.10
2018-10-11T16:13:58.585Z,13.93
2018-10-11T16:16:27.038Z,11.37
2018-10-11T16:18:55.795Z,14.20
2018-10-11T16:21:24.279Z,12.17
2018-10-11T16:23:52.811Z,12.07
2018-10-11T16:26:21.364Z,13.10
2018-10-11T16:28:49.823Z,11.53
2018-10-11T16:31:18.285Z,11.93
2018-10-11T16:33:46.850Z,11.80
2018-10-11T16:36:15.380Z,12.27
2018-10-11T16:38:43.860Z,11.70
2018-10-11T16:41:12.411Z,15.17
2018-10-11T16:43:41.197Z,14.80
2018-10-11T16:46:09.955Z,14.77
2018-10-11T16:48:38.463Z,11.97
2018-10-11T16:51:07.091Z,15.27
2018-10-11T16:53:35.604Z,12.67
2018-10-11T16:56:04.111Z,13.23
2018-10-11T16:58:32.622Z,12.80
2018-10-11T17:01:07.648Z,18.53
2018-10-11T17:03:36.137Z,13.43
2018-10-11T17:06:04.732Z,17.33
2018-10-11T17:08:33.215Z,13.57
2018-10-11T17:11:01.717Z,15.40
2018-10-11T17:13:30.182Z,14.43
2018-10-11T17:15:58.690Z,13.97
2018-10-11T17:18:27.195Z,14.70
2018-10-11T17:20:55.738Z,14.83
2018-10-11T17:23:24.278Z,12.43
2018-10-11T17:25:52.809Z,12.73
2018-10-11T17:28:21.748Z,13.60
2018-10-11T17:30:50.276Z,13.80
2018-10-11T17:33:18.750Z,13.10
2018-10-11T17:35:47.227Z,18.60
2018-10-11T17:38:15.710Z,17.93
2018-10-11T17:40:44.220Z,13.63
2018-10-11T17:43:12.971Z,14.03
2018-10-11T17:45:41.464Z,17.33
2018-10-11T17:48:09.946Z,15.17
2018-10-11T17:50:38.543Z,13.53
2018-10-11T17:53:07.047Z,14.63
2018-10-11T17:55:35.554Z,14.27
2018-10-11T17:58:04.355Z,13.97
2018-10-11T18:00:33.244Z,14.50
2018-10-11T18:03:02.082Z,14.33
2018-10-11T18:05:30.550Z,13.50
2018-10-11T18:07:59.404Z,15.00
2018-10-11T18:10:27.916Z,14.53
2018-10-11T18:12:56.421Z,16.67
2018-10-11T18:15:25.250Z,19.07
2018-10-11T18:17:53.730Z,14.27
2018-10-11T18:20:22.207Z,14.37
2018-10-11T18:22:51.154Z,15.50
2018-10-11T18:25:19.681Z,14.40
2018-10-11T18:27:48.234Z,14.53
2018-10-11T18:30:16.768Z,16.47
2018-10-11T18:32:45.248Z,17.20
2018-10-11T18:35:13.771Z,17.77
2018-10-11T18:37:42.571Z,19.93
2018-10-11T18:40:11.063Z,14.37
2018-10-11T18:42:39.575Z,15.87
2018-10-11T18:45:08.271Z,13.77
2018-10-11T18:47:37.403Z,16.47
2018-10-11T18:50:06.191Z,13.40
2018-10-11T18:52:35.008Z,12.77
2018-10-11T18:55:03.576Z,15.53
2018-10-11T18:57:32.089Z,17.50
2018-10-11T19:00:00.564Z,21.80
2018-10-11T19:02:29.091Z,21.77
2018-10-11T19:04:57.820Z,31.03
2018-10-11T19:07:26.663Z,22.03
2018-10-11T19:09:55.396Z,21.77
2018-10-11T19:12:24.209Z,23.23
2018-10-11T19:14:52.664Z,23.63
2018-10-11T19:17:21.179Z,28.70
2018-10-11T19:19:49.703Z,19.50
2018-10-11T19:22:18.204Z,19.40
2018-10-11T19:24:46.690Z,22.30
2018-10-11T19:27:15.183Z,18.80
2018-10-11T19:29:43.758Z,23.50
2018-10-11T19:32:12.574Z,20.20
2018-10-11T19:34:41.059Z,17.50
2018-10-11T19:37:09.615Z,16.30
2018-10-11T19:39:38.082Z,17.80
2018-10-11T19:42:06.895Z,17.67
2018-10-11T19:44:35.710Z,19.17
2018-10-11T19:47:04.191Z,14.77
2018-10-11T19:49:32.748Z,13.70
2018-10-11T19:52:01.220Z,17.60
2018-10-11T19:54:30.007Z,22.60
2018-10-11T19:56:58.532Z,17.90
2018-10-11T19:59:27.055Z,20.80
2018-10-11T20:01:55.533Z,17.23
2018-10-11T20:04:24.330Z,17.20
2018-10-11T20:06:52.817Z,16.57
2018-10-11T20:09:21.673Z,17.40
2018-10-11T20:11:50.188Z,20.90
2018-10-11T20:14:18.695Z,16.50
2018-10-11T20:16:47.191Z,17.40
2018-10-11T20:19:15.971Z,20.80
2018-10-11T20:21:44.706Z,16.30
2018-10-11T20:24:13.488Z,17.00
2018-10-11T20:26:41.995Z,15.00
2018-10-11T20:29:10.824Z,21.13
2018-10-11T20:31:39.355Z,21.43
2018-10-11T20:34:08.111Z,16.27
2018-10-11T20:36:36.935Z,21.47
2018-10-11T20:39:07.613Z,18.53
2018-10-11T20:41:36.093Z,17.23
2018-10-11T20:44:04.811Z,19.10
2018-10-11T20:46:33.280Z,18.17
2018-10-11T20:49:01.794Z,18.70
2018-10-11T20:51:30.685Z,17.00
2018-10-11T20:53:59.478Z,22.97
2018-10-11T20:56:27.963Z,18.70
2018-10-11T20:58:56.690Z,20.93
2018-10-11T21:01:25.175Z,20.77
2018-10-11T21:03:53.895Z,20.50
2018-10-11T21:06:22.359Z,18.00
2018-10-11T21:08:51.019Z,20.43
2018-10-11T21:11:19.519Z,18.70
2018-10-11T21:13:48.008Z,18.77
2018-10-11T21:16:16.469Z,19.17
2018-10-11T21:18:44.903Z,17.80
2018-10-11T21:21:13.429Z,17.90
2018-10-11T21:23:41.863Z,18.10
2018-10-11T21:26:10.327Z,15.57
2018-10-11T21:28:38.747Z,15.43
2018-10-11T21:31:07.249Z,19.00
2018-10-11T21:33:35.730Z,22.03
2018-10-11T21:36:04.302Z,19.93
2018-10-11T21:38:32.833Z,18.63
2018-10-11T21:41:01.390Z,20.67
2018-10-11T21:43:29.872Z,19.50
2018-10-11T21:45:58.367Z,15.90
2018-10-11T21:48:26.896Z,16.50
2018-10-11T21:50:55.486Z,21.83
2018-10-11T21:53:23.951Z,20.30
2018-10-11T21:55:52.439Z,13.50
2018-10-11T21:58:21.074Z,18.10
2018-10-11T22:00:55.310Z,17.10
2018-10-11T22:03:24.099Z,16.20
2018-10-11T22:05:52.598Z,15.57
2018-10-11T22:08:21.576Z,18.30
2018-10-11T22:10:50.075Z,19.17
2018-10-11T22:13:18.603Z,17.67
2018-10-11T22:15:47.071Z,15.07
2018-10-11T22:18:15.822Z,16.10
2018-10-11T22:20:44.349Z,14.80
2018-10-11T22:23:13.454Z,17.90
2018-10-11T22:25:41.911Z,19.13
2018-10-11T22:28:10.690Z,16.13
2018-10-11T22:30:39.151Z,22.43
2018-10-11T22:33:07.719Z,19.80
2018-10-11T22:35:36.210Z,14.97
2018-10-11T22:38:06.648Z,15.70
2018-10-11T22:40:35.202Z,16.53
2018-10-11T22:43:03.706Z,16.93
2018-10-11T22:45:32.184Z,14.27
2018-10-11T22:48:00.655Z,15.00
2018-10-11T22:50:29.103Z,16.57
2018-10-11T22:52:57.567Z,16.43
2018-10-11T22:55:30.473Z,15.80
2018-10-11T22:57:59.319Z,16.60
2018-10-11T23:00:28.799Z,16.50
2018-10-11T23:02:57.246Z,15.30
2018-10-11T23:05:25.690Z,16.83
2018-10-11T23:07:54.118Z,19.00
2018-10-11T23:10:23.238Z,24.13
2018-10-11T23:12:51.737Z,16.53
2018-10-11T23:15:20.461Z,15.93
2018-10-11T23:17:48.931Z,17.00
2018-10-11T23:20:17.367Z,15.90
2018-10-11T23:22:46.036Z,16.67
2018-10-11T23:25:14.507Z,14.07
2018-10-11T23:27:42.947Z,17.83
2018-10-11T23:30:12.274Z,15.03
2018-10-11T23:32:42.295Z,19.50
2018-10-11T23:35:11.318Z,16.07
2018-10-11T23:37:40.400Z,20.30
2018-10-11T23:40:09.674Z,24.97
2018-10-11T23:42:38.447Z,15.63
2018-10-11T23:45:07.975Z,16.23
2018-10-11T23:47:36.455Z,18.23
2018-10-11T23:50:05.032Z,13.60
2018-10-11T23:52:33.499Z,12.60
2018-10-11T23:55:02.042Z,13.93
2018-10-11T23:57:30.611Z,15.70
2018-10-11T23:59:59.102Z,14.90
